Terminal Aerodrome Forecast
Issued by NWS

Home | Current Version | Previous Version | Graphics & Text | Print | Product List | Glossary On
Versions: 1 2 3 4 5 6 7 8 9 10 11 12 13 14 15 16 17 18 19 20 21 22 23 24 25
000
FTUS43 KABR 200044 AAA
TAFPIR
TAF AMD
KPIR 200044Z 2001/2024 07013KT P6SM OVC070
     FM200200 VRB05KT P6SM OVC070
     FM201300 02007KT P6SM VCSH OVC025
     FM202100 03012KT P6SM OVC020=

USA.gov is the U.S. government's official web portal to all federal, state and local government web resources and services.